sensor_id;sensor_type;location;lat;lon;timestamp;pressure;altitude;pressure_sealevel;temperature;humidity
65280;BME280;51878;55.748;48.742;2023-09-18T00:00:20;99655.06;;;8.93;100.00
65280;BME280;51878;55.748;48.742;2023-09-18T00:05:23;99689.53;;;8.99;100.00
65280;BME280;51878;55.748;48.742;2023-09-18T00:10:26;99664.03;;;8.68;100.00
65280;BME280;51878;55.748;48.742;2023-09-18T00:15:28;99663.88;;;8.62;100.00
65280;BME280;51878;55.748;48.742;2023-09-18T00:20:30;99701.03;;;8.76;100.00
65280;BME280;51878;55.748;48.742;2023-09-18T00:25:33;99696.63;;;8.75;100.00
65280;BME280;51878;55.748;48.742;2023-09-18T00:30:38;99683.16;;;8.67;100.00
65280;BME280;51878;55.748;48.742;2023-09-18T00:35:53;99672.00;;;8.54;100.00
65280;BME280;51878;55.748;48.742;2023-09-18T00:40:56;99642.75;;;8.41;100.00
65280;BME280;51878;55.748;48.742;2023-09-18T00:45:58;99604.22;;;8.14;100.00
65280;BME280;51878;55.748;48.742;2023-09-18T00:51:01;99691.75;;;8.71;100.00
65280;BME280;51878;55.748;48.742;2023-09-18T00:56:04;99670.81;;;8.56;100.00
65280;BME280;51878;55.748;48.742;2023-09-18T01:01:07;99684.66;;;8.61;100.00
65280;BME280;51878;55.748;48.742;2023-09-18T01:06:10;99686.00;;;8.57;100.00
65280;BME280;51878;55.748;48.742;2023-09-18T01:11:21;99677.72;;;8.51;100.00
65280;BME280;51878;55.748;48.742;2023-09-18T01:16:34;99690.06;;;8.45;100.00
65280;BME280;51878;55.748;48.742;2023-09-18T01:21:38;99636.94;;;8.11;100.00
65280;BME280;51878;55.748;48.742;2023-09-18T01:26:41;99666.03;;;8.34;100.00
65280;BME280;51878;55.748;48.742;2023-09-18T01:31:43;99674.16;;;8.42;100.00
65280;BME280;51878;55.748;48.742;2023-09-18T01:36:46;99667.75;;;8.43;100.00
65280;BME280;51878;55.748;48.742;2023-09-18T01:41:49;99668.59;;;8.52;100.00
65280;BME280;51878;55.748;48.742;2023-09-18T01:46:52;99626.88;;;8.46;100.00
65280;BME280;51878;55.748;48.742;2023-09-18T01:51:58;99565.41;;;8.23;100.00
65280;BME280;51878;55.748;48.742;2023-09-18T01:57:01;99650.38;;;8.86;100.00
65280;BME280;51878;55.748;48.742;2023-09-18T02:02:05;99649.34;;;8.96;100.00
65280;BME280;51878;55.748;48.742;2023-09-18T02:07:09;99647.47;;;8.96;100.00
65280;BME280;51878;55.748;48.742;2023-09-18T02:12:12;99639.72;;;8.93;100.00
65280;BME280;51878;55.748;48.742;2023-09-18T02:17:19;99589.91;;;8.63;100.00
65280;BME280;51878;55.748;48.742;2023-09-18T02:22:22;99632.13;;;8.80;100.00
65280;BME280;51878;55.748;48.742;2023-09-18T02:27:25;99642.94;;;8.72;100.00
65280;BME280;51878;55.748;48.742;2023-09-18T02:32:28;99589.06;;;8.46;100.00
65280;BME280;51878;55.748;48.742;2023-09-18T02:37:31;99604.59;;;8.52;100.00
65280;BME280;51878;55.748;48.742;2023-09-18T02:42:34;99631.94;;;8.74;100.00
65280;BME280;51878;55.748;48.742;2023-09-18T02:47:36;99605.59;;;8.67;100.00
65280;BME280;51878;55.748;48.742;2023-09-18T02:52:43;99564.06;;;8.44;100.00
65280;BME280;51878;55.748;48.742;2023-09-18T02:57:45;99582.78;;;8.62;100.00
65280;BME280;51878;55.748;48.742;2023-09-18T03:02:49;99613.19;;;8.88;100.00
65280;BME280;51878;55.748;48.742;2023-09-18T03:07:52;99608.25;;;8.92;100.00
65280;BME280;51878;55.748;48.742;2023-09-18T03:12:54;99601.50;;;8.96;100.00
65280;BME280;51878;55.748;48.742;2023-09-18T03:17:57;99586.78;;;8.99;100.00
65280;BME280;51878;55.748;48.742;2023-09-18T03:23:02;99551.16;;;8.87;100.00
65280;BME280;51878;55.748;48.742;2023-09-18T03:28:04;99593.31;;;9.13;100.00
65280;BME280;51878;55.748;48.742;2023-09-18T03:33:07;99561.25;;;9.01;100.00
65280;BME280;51878;55.748;48.742;2023-09-18T03:38:10;99589.25;;;9.17;100.00
65280;BME280;51878;55.748;48.742;2023-09-18T03:43:12;99576.06;;;9.22;100.00
65280;BME280;51878;55.748;48.742;2023-09-18T03:48:14;99540.25;;;9.12;100.00
65280;BME280;51878;55.748;48.742;2023-09-18T03:53:17;99537.03;;;9.16;100.00
65280;BME280;51878;55.748;48.742;2023-09-18T03:58:20;99541.34;;;9.34;100.00
65280;BME280;51878;55.748;48.742;2023-09-18T04:03:22;99579.22;;;9.73;100.00
65280;BME280;51878;55.748;48.742;2023-09-18T04:08:24;99449.84;;;9.06;100.00
65280;BME280;51878;55.748;48.742;2023-09-18T04:13:28;99558.19;;;9.83;100.00
65280;BME280;51878;55.748;48.742;2023-09-18T04:18:30;99564.47;;;9.99;100.00
65280;BME280;51878;55.748;48.742;2023-09-18T04:23:34;99417.34;;;9.14;100.00
65280;BME280;51878;55.748;48.742;2023-09-18T04:28:38;99558.28;;;10.13;100.00
65280;BME280;51878;55.748;48.742;2023-09-18T04:33:40;99548.59;;;10.19;100.00
65280;BME280;51878;55.748;48.742;2023-09-18T04:38:43;99553.25;;;10.33;100.00
65280;BME280;51878;55.748;48.742;2023-09-18T04:43:45;99522.59;;;10.32;100.00
65280;BME280;51878;55.748;48.742;2023-09-18T04:48:47;99554.50;;;10.60;100.00
65280;BME280;51878;55.748;48.742;2023-09-18T04:53:50;99457.06;;;10.29;100.00
65280;BME280;51878;55.748;48.742;2023-09-18T04:58:53;99505.25;;;10.71;100.00
65280;BME280;51878;55.748;48.742;2023-09-18T05:03:56;99538.41;;;11.11;100.00
65280;BME280;51878;55.748;48.742;2023-09-18T05:08:58;99461.78;;;10.80;100.00
65280;BME280;51878;55.748;48.742;2023-09-18T05:14:00;99525.91;;;11.32;100.00
65280;BME280;51878;55.748;48.742;2023-09-18T05:19:03;99487.81;;;11.40;100.00
65280;BME280;51878;55.748;48.742;2023-09-18T05:24:06;99484.44;;;11.59;100.00
65280;BME280;51878;55.748;48.742;2023-09-18T05:29:08;99522.28;;;12.19;100.00
65280;BME280;51878;55.748;48.742;2023-09-18T05:34:14;99491.88;;;12.30;100.00
65280;BME280;51878;55.748;48.742;2023-09-18T05:39:17;99453.44;;;12.40;100.00
65280;BME280;51878;55.748;48.742;2023-09-18T05:44:19;99478.84;;;12.89;100.00
65280;BME280;51878;55.748;48.742;2023-09-18T05:49:21;99445.28;;;13.16;98.33
65280;BME280;51878;55.748;48.742;2023-09-18T05:54:24;99461.50;;;13.38;96.13
65280;BME280;51878;55.748;48.742;2023-09-18T05:59:26;99467.41;;;13.55;93.01
65280;BME280;51878;55.748;48.742;2023-09-18T06:04:28;99489.25;;;13.75;91.86
65280;BME280;51878;55.748;48.742;2023-09-18T06:09:31;99463.72;;;13.82;92.40
65280;BME280;51878;55.748;48.742;2023-09-18T06:14:33;99502.94;;;14.15;90.57
65280;BME280;51878;55.748;48.742;2023-09-18T06:19:37;99498.13;;;14.23;90.00
65280;BME280;51878;55.748;48.742;2023-09-18T06:24:39;99481.75;;;14.37;90.50
65280;BME280;51878;55.748;48.742;2023-09-18T06:29:41;99481.56;;;14.65;87.54
65280;BME280;51878;55.748;48.742;2023-09-18T06:34:45;99472.50;;;14.84;83.53
65280;BME280;51878;55.748;48.742;2023-09-18T06:39:49;99468.66;;;14.99;80.88
65280;BME280;51878;55.748;48.742;2023-09-18T06:44:51;99444.09;;;14.99;78.67
65280;BME280;51878;55.748;48.742;2023-09-18T06:49:54;99391.03;;;14.75;77.78
65280;BME280;51878;55.748;48.742;2023-09-18T06:54:57;99465.38;;;15.35;76.55
65280;BME280;51878;55.748;48.742;2023-09-18T07:00:04;99411.56;;;15.36;75.39
65280;BME280;51878;55.748;48.742;2023-09-18T07:05:07;99453.13;;;15.83;73.11
65280;BME280;51878;55.748;48.742;2023-09-18T07:10:12;99392.22;;;15.69;72.05
65280;BME280;51878;55.748;48.742;2023-09-18T07:15:15;99418.44;;;16.08;72.83
65280;BME280;51878;55.748;48.742;2023-09-18T07:20:17;99447.22;;;16.43;69.91
65280;BME280;51878;55.748;48.742;2023-09-18T07:25:20;99403.28;;;16.56;69.18
65280;BME280;51878;55.748;48.742;2023-09-18T07:30:23;99433.50;;;16.86;67.64
65280;BME280;51878;55.748;48.742;2023-09-18T07:35:29;99375.38;;;16.84;66.78
65280;BME280;51878;55.748;48.742;2023-09-18T07:40:31;99422.44;;;17.30;66.60
65280;BME280;51878;55.748;48.742;2023-09-18T07:45:34;99386.63;;;17.43;64.82
65280;BME280;51878;55.748;48.742;2023-09-18T07:50:36;99386.50;;;17.50;65.64
65280;BME280;51878;55.748;48.742;2023-09-18T07:55:39;99353.97;;;17.84;61.08
65280;BME280;51878;55.748;48.742;2023-09-18T08:00:41;99405.53;;;18.41;59.97
65280;BME280;51878;55.748;48.742;2023-09-18T08:05:43;99407.31;;;18.70;60.20
65280;BME280;51878;55.748;48.742;2023-09-18T08:10:47;99412.81;;;18.94;58.26
65280;BME280;51878;55.748;48.742;2023-09-18T08:15:49;99365.97;;;18.77;58.14
65280;BME280;51878;55.748;48.742;2023-09-18T08:20:53;99374.69;;;18.74;57.10
65280;BME280;51878;55.748;48.742;2023-09-18T08:25:56;99378.84;;;19.00;56.97
65280;BME280;51878;55.748;48.742;2023-09-18T08:30:59;99380.81;;;19.16;56.19
65280;BME280;51878;55.748;48.742;2023-09-18T08:36:03;99333.94;;;18.94;54.21
65280;BME280;51878;55.748;48.742;2023-09-18T08:41:05;99359.16;;;19.20;51.52
65280;BME280;51878;55.748;48.742;2023-09-18T08:46:11;99368.66;;;19.41;50.76
65280;BME280;51878;55.748;48.742;2023-09-18T08:51:14;99370.00;;;19.55;47.29
65280;BME280;51878;55.748;48.742;2023-09-18T08:56:17;99366.75;;;19.58;46.32
65280;BME280;51878;55.748;48.742;2023-09-18T09:01:20;99349.88;;;19.84;46.57
65280;BME280;51878;55.748;48.742;2023-09-18T09:06:23;99332.44;;;19.95;45.55
65280;BME280;51878;55.748;48.742;2023-09-18T09:11:25;99339.94;;;20.16;42.33
65280;BME280;51878;55.748;48.742;2023-09-18T09:16:28;99352.78;;;20.28;41.70
65280;BME280;51878;55.748;48.742;2023-09-18T09:21:41;99328.50;;;20.25;39.63
65280;BME280;51878;55.748;48.742;2023-09-18T09:26:57;99314.63;;;20.19;39.71
65280;BME280;51878;55.748;48.742;2023-09-18T09:32:20;99317.56;;;20.52;39.78
65280;BME280;51878;55.748;48.742;2023-09-18T09:37:29;99295.75;;;20.67;39.11
65280;BME280;51878;55.748;48.742;2023-09-18T09:42:37;99333.31;;;20.73;39.92
65280;BME280;51878;55.748;48.742;2023-09-18T09:47:40;99281.06;;;21.05;39.68
65280;BME280;51878;55.748;48.742;2023-09-18T09:52:52;99323.78;;;21.57;39.46
65280;BME280;51878;55.748;48.742;2023-09-18T09:57:56;99268.22;;;21.81;38.68
65280;BME280;51878;55.748;48.742;2023-09-18T10:03:04;99290.47;;;22.06;39.02
65280;BME280;51878;55.748;48.742;2023-09-18T10:08:18;99218.34;;;22.40;38.33
65280;BME280;51878;55.748;48.742;2023-09-18T10:29:41;99283.09;;;21.80;38.32
65280;BME280;51878;55.748;48.742;2023-09-18T10:34:44;99239.56;;;22.30;38.02
65280;BME280;51878;55.748;48.742;2023-09-18T10:39:49;99242.63;;;22.38;37.92
65280;BME280;51878;55.748;48.742;2023-09-18T10:44:52;99278.66;;;22.64;37.89
65280;BME280;51878;55.748;48.742;2023-09-18T10:49:55;99296.13;;;22.22;39.21
65280;BME280;51878;55.748;48.742;2023-09-18T10:54:57;99272.38;;;21.83;39.88
65280;BME280;51878;55.748;48.742;2023-09-18T11:00:00;99216.28;;;21.40;40.18
65280;BME280;51878;55.748;48.742;2023-09-18T11:05:03;99216.13;;;21.95;40.43
65280;BME280;51878;55.748;48.742;2023-09-18T11:10:25;99275.75;;;23.01;37.32
65280;BME280;51878;55.748;48.742;2023-09-18T11:15:31;99277.53;;;23.79;36.91
65280;BME280;51878;55.748;48.742;2023-09-18T11:20:38;99271.38;;;23.57;35.35
65280;BME280;51878;55.748;48.742;2023-09-18T11:25:41;99262.31;;;22.52;37.55
65280;BME280;51878;55.748;48.742;2023-09-18T11:30:52;99265.28;;;21.60;40.04
65280;BME280;51878;55.748;48.742;2023-09-18T11:36:05;99240.09;;;21.89;39.28
65280;BME280;51878;55.748;48.742;2023-09-18T11:41:25;99228.72;;;21.11;41.47
65280;BME280;51878;55.748;48.742;2023-09-18T11:46:28;99234.56;;;20.92;41.58
65280;BME280;51878;55.748;48.742;2023-09-18T11:51:32;99238.72;;;20.68;42.56
65280;BME280;51878;55.748;48.742;2023-09-18T11:56:35;99205.53;;;19.91;44.05
65280;BME280;51878;55.748;48.742;2023-09-18T12:01:37;99232.78;;;20.32;43.59
65280;BME280;51878;55.748;48.742;2023-09-18T12:06:42;99240.19;;;20.31;44.04
65280;BME280;51878;55.748;48.742;2023-09-18T12:11:45;99209.78;;;20.21;43.55
65280;BME280;51878;55.748;48.742;2023-09-18T12:16:49;99228.25;;;20.92;42.58
65280;BME280;51878;55.748;48.742;2023-09-18T12:21:52;99191.44;;;22.20;41.73
65280;BME280;51878;55.748;48.742;2023-09-18T12:26:54;99203.66;;;22.35;40.95
65280;BME280;51878;55.748;48.742;2023-09-18T12:31:57;99198.28;;;22.18;41.08
65280;BME280;51878;55.748;48.742;2023-09-18T12:37:00;99219.81;;;21.63;41.71
65280;BME280;51878;55.748;48.742;2023-09-18T12:42:03;99216.19;;;22.05;41.56
65280;BME280;51878;55.748;48.742;2023-09-18T12:47:06;99216.00;;;22.95;38.77
65280;BME280;51878;55.748;48.742;2023-09-18T12:52:09;99199.56;;;22.42;40.35
65280;BME280;51878;55.748;48.742;2023-09-18T12:57:15;99212.97;;;21.76;41.30
65280;BME280;51878;55.748;48.742;2023-09-18T13:02:18;99191.00;;;20.89;43.33
65280;BME280;51878;55.748;48.742;2023-09-18T13:07:22;99158.56;;;20.20;45.21
65280;BME280;51878;55.748;48.742;2023-09-18T13:12:24;99121.75;;;20.53;44.45
65280;BME280;51878;55.748;48.742;2023-09-18T13:17:27;99187.66;;;21.89;42.05
65280;BME280;51878;55.748;48.742;2023-09-18T13:22:29;99189.38;;;21.53;42.81
65280;BME280;51878;55.748;48.742;2023-09-18T13:27:31;99140.09;;;21.72;42.14
65280;BME280;51878;55.748;48.742;2023-09-18T13:32:37;99185.56;;;21.59;42.69
65280;BME280;51878;55.748;48.742;2023-09-18T13:37:42;99185.75;;;22.53;41.32
65280;BME280;51878;55.748;48.742;2023-09-18T13:42:44;99200.13;;;22.49;40.16
65280;BME280;51878;55.748;48.742;2023-09-18T13:47:46;99156.38;;;21.68;41.43
65280;BME280;51878;55.748;48.742;2023-09-18T13:52:51;99152.63;;;21.90;41.50
65280;BME280;51878;55.748;48.742;2023-09-18T13:58:04;99181.53;;;22.30;41.54
65280;BME280;51878;55.748;48.742;2023-09-18T14:03:08;99116.38;;;22.34;39.89
65280;BME280;51878;55.748;48.742;2023-09-18T14:08:11;99182.34;;;21.72;40.73
65280;BME280;51878;55.748;48.742;2023-09-18T14:13:13;99181.28;;;20.32;43.43
65280;BME280;51878;55.748;48.742;2023-09-18T14:18:19;99186.47;;;20.29;44.47
65280;BME280;51878;55.748;48.742;2023-09-18T14:23:21;99176.94;;;20.14;45.10
65280;BME280;51878;55.748;48.742;2023-09-18T14:28:23;99185.22;;;19.97;46.28
65280;BME280;51878;55.748;48.742;2023-09-18T14:33:26;99188.50;;;19.22;48.29
65280;BME280;51878;55.748;48.742;2023-09-18T14:38:28;99179.56;;;18.69;50.20
65280;BME280;51878;55.748;48.742;2023-09-18T14:43:30;99144.25;;;18.15;51.66
65280;BME280;51878;55.748;48.742;2023-09-18T14:48:33;99177.56;;;17.71;54.75
65280;BME280;51878;55.748;48.742;2023-09-18T14:53:36;99132.28;;;17.10;57.66
65280;BME280;51878;55.748;48.742;2023-09-18T14:58:39;99173.22;;;16.93;59.71
65280;BME280;51878;55.748;48.742;2023-09-18T15:03:41;99159.59;;;16.44;62.66
65280;BME280;51878;55.748;48.742;2023-09-18T15:08:44;99181.97;;;16.41;64.66
65280;BME280;51878;55.748;48.742;2023-09-18T15:13:46;99177.22;;;16.18;66.92
65280;BME280;51878;55.748;48.742;2023-09-18T15:18:49;99182.00;;;16.04;68.88
65280;BME280;51878;55.748;48.742;2023-09-18T15:23:59;99182.88;;;15.86;71.12
65280;BME280;51878;55.748;48.742;2023-09-18T15:29:01;99173.63;;;15.62;72.33
65280;BME280;51878;55.748;48.742;2023-09-18T15:34:04;99156.53;;;15.48;73.48
65280;BME280;51878;55.748;48.742;2023-09-18T15:39:06;99152.88;;;15.36;74.22
65280;BME280;51878;55.748;48.742;2023-09-18T15:44:08;99132.91;;;15.17;75.99
65280;BME280;51878;55.748;48.742;2023-09-18T15:49:12;99155.13;;;15.21;77.09
65280;BME280;51878;55.748;48.742;2023-09-18T15:54:14;99177.38;;;15.24;77.93
65280;BME280;51878;55.748;48.742;2023-09-18T15:59:18;99147.94;;;15.01;79.27
65280;BME280;51878;55.748;48.742;2023-09-18T16:04:21;99164.09;;;15.03;81.30
65280;BME280;51878;55.748;48.742;2023-09-18T16:09:23;99171.56;;;15.14;84.22
65280;BME280;51878;55.748;48.742;2023-09-18T16:14:26;99161.56;;;15.01;84.48
65280;BME280;51878;55.748;48.742;2023-09-18T16:19:28;99095.13;;;14.64;84.14
65280;BME280;51878;55.748;48.742;2023-09-18T16:24:30;99177.25;;;15.13;84.13
65280;BME280;51878;55.748;48.742;2023-09-18T16:29:33;99147.81;;;14.90;84.19
65280;BME280;51878;55.748;48.742;2023-09-18T16:34:35;99167.44;;;15.05;84.43
65280;BME280;51878;55.748;48.742;2023-09-18T16:39:38;99165.53;;;15.05;84.38
65280;BME280;51878;55.748;48.742;2023-09-18T16:44:40;99137.72;;;14.90;84.67
65280;BME280;51878;55.748;48.742;2023-09-18T16:49:44;99152.41;;;14.96;84.59
65280;BME280;51878;55.748;48.742;2023-09-18T16:54:49;99190.50;;;15.09;85.49
65280;BME280;51878;55.748;48.742;2023-09-18T16:59:52;99188.25;;;15.06;85.58
65280;BME280;51878;55.748;48.742;2023-09-18T17:04:57;99185.09;;;15.02;86.14
65280;BME280;51878;55.748;48.742;2023-09-18T17:09:59;99128.03;;;14.69;86.35
65280;BME280;51878;55.748;48.742;2023-09-18T17:15:01;99188.97;;;14.88;87.00
65280;BME280;51878;55.748;48.742;2023-09-18T17:20:05;99203.69;;;14.87;87.55
65280;BME280;51878;55.748;48.742;2023-09-18T17:25:08;99183.41;;;14.76;88.56
65280;BME280;51878;55.748;48.742;2023-09-18T17:30:12;99184.81;;;14.85;88.58
65280;BME280;51878;55.748;48.742;2023-09-18T17:35:16;99199.63;;;14.96;88.40
65280;BME280;51878;55.748;48.742;2023-09-18T17:40:19;99119.78;;;14.44;89.06
65280;BME280;51878;55.748;48.742;2023-09-18T17:45:21;99155.25;;;14.82;93.50
65280;BME280;51878;55.748;48.742;2023-09-18T17:50:24;99189.06;;;15.06;95.12
65280;BME280;51878;55.748;48.742;2023-09-18T17:55:26;99193.47;;;15.07;100.00
65280;BME280;51878;55.748;48.742;2023-09-18T18:00:28;99175.69;;;14.98;100.00
65280;BME280;51878;55.748;48.742;2023-09-18T18:05:30;99178.81;;;15.02;100.00
65280;BME280;51878;55.748;48.742;2023-09-18T18:10:33;99086.16;;;14.50;100.00
65280;BME280;51878;55.748;48.742;2023-09-18T18:15:37;99181.72;;;15.07;100.00
65280;BME280;51878;55.748;48.742;2023-09-18T18:20:43;99155.03;;;14.84;100.00
65280;BME280;51878;55.748;48.742;2023-09-18T18:25:50;99196.25;;;15.01;100.00
65280;BME280;51878;55.748;48.742;2023-09-18T18:30:53;99201.13;;;14.92;100.00
65280;BME280;51878;55.748;48.742;2023-09-18T18:35:56;99199.94;;;14.81;100.00
65280;BME280;51878;55.748;48.742;2023-09-18T18:41:00;99212.91;;;14.93;100.00
65280;BME280;51878;55.748;48.742;2023-09-18T18:46:02;99220.69;;;14.89;100.00
65280;BME280;51878;55.748;48.742;2023-09-18T18:51:13;99184.94;;;14.65;100.00
65280;BME280;51878;55.748;48.742;2023-09-18T18:56:20;99217.19;;;14.82;100.00
65280;BME280;51878;55.748;48.742;2023-09-18T19:01:22;99208.81;;;14.77;100.00
65280;BME280;51878;55.748;48.742;2023-09-18T19:06:29;99218.72;;;14.71;100.00
65280;BME280;51878;55.748;48.742;2023-09-18T19:11:31;99230.06;;;14.68;100.00
65280;BME280;51878;55.748;48.742;2023-09-18T19:16:33;99210.66;;;14.44;100.00
65280;BME280;51878;55.748;48.742;2023-09-18T19:21:36;99224.13;;;14.33;100.00
65280;BME280;51878;55.748;48.742;2023-09-18T19:26:38;99193.00;;;13.95;100.00
65280;BME280;51878;55.748;48.742;2023-09-18T19:31:40;99191.59;;;13.79;100.00
65280;BME280;51878;55.748;48.742;2023-09-18T19:36:43;99190.19;;;13.57;100.00
65280;BME280;51878;55.748;48.742;2023-09-18T19:41:58;99232.28;;;13.74;100.00
65280;BME280;51878;55.748;48.742;2023-09-18T19:47:04;99199.66;;;13.41;100.00
65280;BME280;51878;55.748;48.742;2023-09-18T19:52:07;99210.56;;;13.41;100.00
65280;BME280;51878;55.748;48.742;2023-09-18T19:57:11;99208.47;;;13.36;100.00
65280;BME280;51878;55.748;48.742;2023-09-18T20:02:16;99210.13;;;13.31;100.00
65280;BME280;51878;55.748;48.742;2023-09-18T20:07:19;99234.44;;;13.39;100.00
65280;BME280;51878;55.748;48.742;2023-09-18T20:12:21;99253.69;;;13.44;100.00
65280;BME280;51878;55.748;48.742;2023-09-18T20:17:23;99219.34;;;13.23;100.00
65280;BME280;51878;55.748;48.742;2023-09-18T20:22:26;99247.22;;;13.38;100.00
65280;BME280;51878;55.748;48.742;2023-09-18T20:27:28;99270.03;;;13.31;100.00
65280;BME280;51878;55.748;48.742;2023-09-18T20:32:34;99270.63;;;13.13;100.00
65280;BME280;51878;55.748;48.742;2023-09-18T20:37:37;99270.59;;;12.93;100.00
65280;BME280;51878;55.748;48.742;2023-09-18T20:42:39;99268.03;;;12.78;100.00
65280;BME280;51878;55.748;48.742;2023-09-18T20:47:42;99244.94;;;12.47;100.00
65280;BME280;51878;55.748;48.742;2023-09-18T20:52:48;99244.25;;;12.32;100.00
65280;BME280;51878;55.748;48.742;2023-09-18T20:57:50;99256.16;;;12.24;100.00
65280;BME280;51878;55.748;48.742;2023-09-18T21:02:52;99288.34;;;12.27;100.00
65280;BME280;51878;55.748;48.742;2023-09-18T21:07:55;99284.13;;;12.18;100.00
65280;BME280;51878;55.748;48.742;2023-09-18T21:12:57;99237.09;;;11.83;100.00
65280;BME280;51878;55.748;48.742;2023-09-18T21:17:59;99285.94;;;12.04;100.00
65280;BME280;51878;55.748;48.742;2023-09-18T21:23:03;99277.72;;;11.91;100.00
65280;BME280;51878;55.748;48.742;2023-09-18T21:28:05;99277.16;;;11.74;100.00
65280;BME280;51878;55.748;48.742;2023-09-18T21:33:07;99219.47;;;11.15;100.00
65280;BME280;51878;55.748;48.742;2023-09-18T21:38:10;99238.75;;;11.21;100.00
65280;BME280;51878;55.748;48.742;2023-09-18T21:43:12;99272.00;;;11.29;100.00
65280;BME280;51878;55.748;48.742;2023-09-18T21:48:14;99295.53;;;11.22;100.00
65280;BME280;51878;55.748;48.742;2023-09-18T21:53:17;99253.25;;;10.85;100.00
65280;BME280;51878;55.748;48.742;2023-09-18T21:58:20;99295.91;;;10.98;100.00
65280;BME280;51878;55.748;48.742;2023-09-18T22:03:23;99270.56;;;10.69;100.00
65280;BME280;51878;55.748;48.742;2023-09-18T22:08:25;99302.41;;;10.82;100.00
65280;BME280;51878;55.748;48.742;2023-09-18T22:13:27;99228.91;;;10.19;100.00
65280;BME280;51878;55.748;48.742;2023-09-18T22:18:30;99290.81;;;10.51;100.00
65280;BME280;51878;55.748;48.742;2023-09-18T22:23:33;99303.44;;;10.44;100.00
65280;BME280;51878;55.748;48.742;2023-09-18T22:28:38;99277.94;;;10.24;100.00
65280;BME280;51878;55.748;48.742;2023-09-18T22:33:42;99323.38;;;10.37;100.00
65280;BME280;51878;55.748;48.742;2023-09-18T22:55:18;99338.19;;;9.96;100.00
65280;BME280;51878;55.748;48.742;2023-09-18T23:00:28;99343.13;;;10.07;100.00
65280;BME280;51878;55.748;48.742;2023-09-18T23:05:34;99337.94;;;10.06;100.00
65280;BME280;51878;55.748;48.742;2023-09-18T23:10:39;99330.53;;;10.14;100.00
65280;BME280;51878;55.748;48.742;2023-09-18T23:15:43;99297.66;;;10.03;100.00
65280;BME280;51878;55.748;48.742;2023-09-18T23:20:45;99355.78;;;10.45;100.00
65280;BME280;51878;55.748;48.742;2023-09-18T23:25:53;99296.16;;;10.15;100.00
